Time;durP1;ratioP1;P1;durP2;ratioP2;P2;SDS_P1;SDS_P2;PMS_P1;PMS_P2;Temp;Humidity;BMP_temperature;BMP_pressure;BME280_temperature;BME280_humidity;BME280_pressure;Samples;Min_cycle;Max_cycle;Signal;HPM_P1;HPM_P2
2023/08/22 00:02:00;;;;;;;6.97;3.40;;;18.40;99.90;;;;;;5017879;28;20128;-72
2023/08/22 00:04:26;;;;;;;4.75;2.90;;;18.40;99.90;;;;;;5036427;28;20102;-72
2023/08/22 00:06:52;;;;;;;5.28;3.28;;;18.40;99.90;;;;;;5020341;28;20128;-72
2023/08/22 00:09:17;;;;;;;7.57;3.65;;;18.40;99.90;;;;;;5012883;28;20124;-72
2023/08/22 00:11:46;;;;;;;7.03;3.47;;;18.40;99.90;;;;;;5037869;28;20044;-72
2023/08/22 00:14:13;;;;;;;8.07;3.60;;;18.40;99.90;;;;;;5036037;28;20418;-72
2023/08/22 00:16:39;;;;;;;7.82;4.22;;;18.40;99.90;;;;;;5034763;28;20051;-72
2023/08/22 00:19:05;;;;;;;7.85;3.55;;;18.40;99.90;;;;;;5034285;28;20037;-72
2023/08/22 00:21:30;;;;;;;7.63;3.92;;;18.40;99.90;;;;;;5035055;28;20046;-72
2023/08/22 00:23:58;;;;;;;7.55;4.15;;;18.30;99.90;;;;;;5034245;28;20230;-71
2023/08/22 00:26:24;;;;;;;9.25;3.90;;;18.40;99.90;;;;;;5039985;28;20061;-72
2023/08/22 00:28:49;;;;;;;9.07;4.07;;;18.30;99.90;;;;;;5031799;28;20136;-72
2023/08/22 00:31:15;;;;;;;7.22;3.65;;;18.30;99.90;;;;;;5028846;28;20093;-72
2023/08/22 00:33:41;;;;;;;7.45;4.07;;;18.40;99.90;;;;;;5039823;28;20424;-72
2023/08/22 00:36:07;;;;;;;5.43;3.25;;;18.30;99.90;;;;;;5040459;28;20067;-72
2023/08/22 00:38:32;;;;;;;7.57;3.35;;;18.30;99.90;;;;;;5041213;28;20092;-72
2023/08/22 00:40:58;;;;;;;7.53;3.50;;;18.30;99.90;;;;;;5035312;28;20177;-71
2023/08/22 00:43:24;;;;;;;6.72;3.28;;;18.30;99.90;;;;;;5037699;28;20106;-71
2023/08/22 00:45:49;;;;;;;6.93;3.22;;;18.20;99.90;;;;;;5038939;28;20144;-72
2023/08/22 00:48:15;;;;;;;10.40;3.63;;;18.20;99.90;;;;;;5044000;28;20506;-71
2023/08/22 00:50:41;;;;;;;7.13;3.08;;;18.20;99.90;;;;;;5045633;28;20093;-72
2023/08/22 00:53:07;;;;;;;7.30;3.42;;;18.20;99.90;;;;;;5028405;28;20044;-71
2023/08/22 00:55:33;;;;;;;5.82;3.28;;;18.20;99.90;;;;;;5041358;28;20037;-71
2023/08/22 00:57:59;;;;;;;7.95;3.60;;;18.20;99.90;;;;;;5043972;28;20144;-72
2023/08/22 01:00:25;;;;;;;;;;;18.10;99.90;;;;;;5045877;28;20041;-71
2023/08/22 01:02:51;;;;;;;8.38;3.22;;;18.20;99.90;;;;;;5025239;28;20010;-71
2023/08/22 01:05:16;;;;;;;12.55;3.53;;;18.10;99.90;;;;;;5020885;28;20052;-71
2023/08/22 01:08:04;;;;;;;6.72;3.22;;;18.10;99.90;;;;;;5043876;28;20068;-71
2023/08/22 01:10:38;;;;;;;5.80;3.33;;;18.10;99.90;;;;;;5044180;28;20061;-71
2023/08/22 01:13:33;;;;;;;7.30;3.30;;;18.10;99.90;;;;;;5041319;28;20055;-71
2023/08/22 01:15:59;;;;;;;7.65;3.30;;;18.10;99.90;;;;;;5042517;28;20048;-71
2023/08/22 01:18:26;;;;;;;9.40;3.90;;;18.10;99.90;;;;;;5039212;28;20118;-71
2023/08/22 01:20:52;;;;;;;12.77;4.68;;;18.10;99.90;;;;;;5034427;28;20520;-71
2023/08/22 01:23:17;;;;;;;8.02;3.92;;;18.10;99.90;;;;;;5041803;28;20055;-71
2023/08/22 01:25:43;;;;;;;5.18;3.50;;;18.10;99.90;;;;;;5041488;28;20079;-71
2023/08/22 01:28:21;;;;;;;9.63;4.13;;;18.10;99.90;;;;;;5062659;28;20049;-71
2023/08/22 01:31:00;;;;;;;8.48;4.00;;;18.00;99.90;;;;;;5038005;28;20532;-71
2023/08/22 01:33:37;;;;;;;8.57;4.38;;;18.00;99.90;;;;;;5037862;28;20087;-71
2023/08/22 01:36:06;;;;;;;6.13;3.65;;;18.10;99.90;;;;;;5020961;28;20048;-72
2023/08/22 01:38:34;;;;;;;12.05;4.20;;;18.10;99.90;;;;;;5044667;28;20106;-71
2023/08/22 01:41:03;;;;;;;6.75;3.92;;;18.00;99.90;;;;;;5040353;28;20110;-71
2023/08/22 01:43:36;;;;;;;8.95;4.40;;;18.00;99.90;;;;;;5043388;28;20065;-71
2023/08/22 01:46:03;;;;;;;8.15;4.05;;;18.00;99.90;;;;;;5033441;28;20045;-71
2023/08/22 01:48:28;;;;;;;8.85;3.85;;;18.00;99.90;;;;;;5040134;28;20041;-71
2023/08/22 01:50:54;;;;;;;6.75;3.25;;;18.00;99.90;;;;;;5041576;28;20037;-71
2023/08/22 01:53:20;;;;;;;6.60;4.10;;;18.00;99.90;;;;;;5036388;28;20599;-71
2023/08/22 01:55:45;;;;;;;7.35;3.72;;;18.00;99.90;;;;;;5037876;28;20403;-71
2023/08/22 01:58:11;;;;;;;8.57;3.33;;;18.00;99.90;;;;;;5043795;28;20106;-71
2023/08/22 02:00:40;;;;;;;7.63;3.40;;;17.90;99.90;;;;;;5042524;28;20044;-71
2023/08/22 02:03:05;;;;;;;8.43;3.70;;;17.90;99.90;;;;;;5031810;28;20075;-71
2023/08/22 02:05:31;;;;;;;6.22;3.78;;;17.90;99.90;;;;;;5031598;28;20243;-71
2023/08/22 02:07:59;;;;;;;9.18;3.38;;;17.80;99.90;;;;;;5038594;28;20047;-71
2023/08/22 02:10:25;;;;;;;7.03;3.90;;;17.80;99.90;;;;;;5035629;28;20039;-71
2023/08/22 02:12:51;;;;;;;4.38;3.00;;;17.80;99.90;;;;;;5041723;28;20112;-71
2023/08/22 02:15:16;;;;;;;5.68;3.67;;;17.70;99.90;;;;;;5038463;28;20041;-71
2023/08/22 02:17:42;;;;;;;9.43;3.75;;;17.70;99.90;;;;;;5037742;28;20052;-72
2023/08/22 02:20:11;;;;;;;6.93;4.05;;;17.70;99.90;;;;;;5037348;28;20116;-71
2023/08/22 02:22:41;;;;;;;8.10;3.65;;;17.70;99.90;;;;;;5033203;28;20140;-71
2023/08/22 02:25:08;;;;;;;6.95;3.72;;;17.60;99.90;;;;;;5039819;28;20379;-72
2023/08/22 02:27:33;;;;;;;7.70;3.78;;;17.60;99.90;;;;;;5030465;28;20140;-72
2023/08/22 02:30:00;;;;;;;6.32;3.80;;;17.60;99.90;;;;;;5038383;28;20458;-72
2023/08/22 02:32:25;;;;;;;;;;;17.60;99.90;;;;;;5041166;28;20166;-71
2023/08/22 02:34:51;;;;;;;6.85;3.35;;;17.50;99.90;;;;;;5022870;28;20023;-71
2023/08/22 02:37:17;;;;;;;11.95;3.97;;;17.50;99.90;;;;;;5034485;28;20119;-71
2023/08/22 02:39:42;;;;;;;8.57;3.55;;;17.50;99.90;;;;;;5038206;28;20508;-72
2023/08/22 02:42:08;;;;;;;8.57;3.58;;;17.50;99.90;;;;;;5035544;28;20666;-71
2023/08/22 02:44:33;;;;;;;8.30;3.50;;;17.50;99.90;;;;;;5038645;28;20056;-72
2023/08/22 02:46:59;;;;;;;6.07;3.70;;;17.50;99.90;;;;;;5030091;28;20041;-71
2023/08/22 02:49:25;;;;;;;6.25;3.55;;;17.50;99.90;;;;;;5044493;28;20677;-71
2023/08/22 02:51:51;;;;;;;10.45;3.80;;;17.50;99.90;;;;;;5038065;28;20125;-71
2023/08/22 02:54:16;;;;;;;6.78;3.88;;;17.50;99.90;;;;;;5040492;28;20048;-71
2023/08/22 02:56:42;;;;;;;8.43;3.60;;;17.50;99.90;;;;;;5042382;28;20278;-72
2023/08/22 02:59:07;;;;;;;7.78;3.53;;;17.40;99.90;;;;;;5033883;28;20056;-71
2023/08/22 03:01:33;;;;;;;7.03;3.67;;;17.40;99.90;;;;;;5037044;28;20596;-72
2023/08/22 03:03:59;;;;;;;8.93;3.97;;;17.40;99.90;;;;;;5039600;28;20060;-71
2023/08/22 03:06:31;;;;;;;6.07;3.55;;;17.40;99.90;;;;;;5038471;28;20102;-71
2023/08/22 03:08:57;;;;;;;8.95;3.80;;;17.30;99.90;;;;;;5038282;28;20042;-72
2023/08/22 03:11:23;;;;;;;5.32;3.70;;;17.30;99.90;;;;;;5038397;28;20421;-71
2023/08/22 03:13:48;;;;;;;8.27;3.95;;;17.30;99.90;;;;;;5039999;28;20049;-71
2023/08/22 03:16:14;;;;;;;5.35;3.38;;;17.30;99.90;;;;;;5033167;28;20052;-72
2023/08/22 03:18:42;;;;;;;7.47;3.95;;;17.30;99.90;;;;;;5037889;28;20115;-71
2023/08/22 03:21:08;;;;;;;6.10;3.55;;;17.30;99.90;;;;;;5042027;28;20049;-72
2023/08/22 03:23:38;;;;;;;10.18;4.15;;;17.30;99.90;;;;;;5034635;28;20569;-72
2023/08/22 03:26:06;;;;;;;4.95;3.53;;;17.30;99.90;;;;;;5042404;28;20507;-72
2023/08/22 03:28:33;;;;;;;11.75;3.60;;;17.30;99.90;;;;;;5034087;28;20052;-71
2023/08/22 03:31:03;;;;;;;6.68;3.67;;;17.30;99.90;;;;;;5029004;28;20037;-72
2023/08/22 03:33:29;;;;;;;6.22;3.78;;;17.30;99.90;;;;;;5035826;28;20048;-71
2023/08/22 03:35:56;;;;;;;7.70;3.80;;;17.20;99.90;;;;;;5041805;28;20425;-71
2023/08/22 03:38:22;;;;;;;8.48;4.28;;;17.20;99.90;;;;;;5039404;28;20045;-71
2023/08/22 03:40:48;;;;;;;;;;;17.20;99.90;;;;;;5039430;28;20055;-71
2023/08/22 03:43:16;;;;;;;9.27;4.03;;;17.20;99.90;;;;;;5032613;28;20285;-71
2023/08/22 03:45:43;;;;;;;11.25;4.28;;;17.20;99.90;;;;;;5035824;28;20194;-71
2023/08/22 03:48:09;;;;;;;12.05;4.25;;;17.10;99.90;;;;;;5033974;28;20144;-71
2023/08/22 03:50:35;;;;;;;8.15;4.07;;;17.10;99.90;;;;;;5034694;28;20037;-71
2023/08/22 03:53:01;;;;;;;9.45;3.95;;;17.10;99.90;;;;;;5038377;28;20037;-71
2023/08/22 03:55:27;;;;;;;6.85;3.95;;;17.10;99.90;;;;;;5030371;28;20045;-71
2023/08/22 03:57:52;;;;;;;7.40;4.43;;;17.10;99.90;;;;;;5036746;28;20082;-72
2023/08/22 04:00:18;;;;;;;11.15;4.90;;;17.10;99.90;;;;;;5035790;28;20041;-71
2023/08/22 04:02:43;;;;;;;5.22;3.40;;;17.10;99.90;;;;;;5036339;28;20032;-71
2023/08/22 04:05:12;;;;;;;7.03;3.83;;;17.00;99.90;;;;;;5033490;28;20505;-71
2023/08/22 04:07:38;;;;;;;6.30;4.10;;;17.00;99.90;;;;;;5037454;28;20152;-71
2023/08/22 04:10:04;;;;;;;5.68;3.80;;;17.00;99.90;;;;;;5019103;28;20064;-71
2023/08/22 04:12:30;;;;;;;9.48;4.15;;;16.90;99.90;;;;;;5038921;28;20463;-71
2023/08/22 04:14:55;;;;;;;9.25;4.18;;;16.90;99.90;;;;;;5021614;28;20047;-71
2023/08/22 04:17:21;;;;;;;7.80;4.22;;;16.90;99.90;;;;;;5032021;28;20045;-71
2023/08/22 04:19:47;;;;;;;6.85;4.10;;;16.80;99.90;;;;;;5029864;28;20043;-71
2023/08/22 04:22:12;;;;;;;8.38;4.45;;;16.80;99.90;;;;;;5039842;28;20469;-71
2023/08/22 04:24:38;;;;;;;9.65;4.20;;;16.80;99.90;;;;;;5032712;28;20106;-71
2023/08/22 04:27:04;;;;;;;6.97;3.92;;;16.80;99.90;;;;;;5037289;28;20045;-71
2023/08/22 04:29:29;;;;;;;6.85;3.55;;;16.80;99.90;;;;;;5032327;28;20046;-71
2023/08/22 04:31:58;;;;;;;8.98;4.47;;;16.80;99.90;;;;;;5037441;28;20121;-71
2023/08/22 04:34:24;;;;;;;8.65;4.28;;;16.80;99.90;;;;;;5039470;28;20122;-71
2023/08/22 04:36:49;;;;;;;8.57;4.22;;;16.90;99.90;;;;;;5033272;28;20049;-71
2023/08/22 04:39:15;;;;;;;8.02;4.30;;;16.80;99.90;;;;;;5035044;28;20045;-71
2023/08/22 04:41:40;;;;;;;8.68;4.03;;;16.80;99.90;;;;;;5033048;28;20029;-71
2023/08/22 04:44:06;;;;;;;9.55;4.95;;;16.80;99.90;;;;;;5037140;28;20052;-71
2023/08/22 04:46:32;;;;;;;8.43;3.97;;;16.80;99.90;;;;;;5037021;28;20299;-71
2023/08/22 04:48:57;;;;;;;9.50;4.28;;;16.80;99.90;;;;;;5035208;28;20037;-71
2023/08/22 04:51:23;;;;;;;7.65;4.55;;;16.70;99.90;;;;;;5034335;28;20060;-71
2023/08/22 04:53:51;;;;;;;9.57;4.68;;;16.70;99.90;;;;;;5036137;28;20147;-71
2023/08/22 04:56:17;;;;;;;9.77;4.43;;;16.70;99.90;;;;;;5034143;28;20053;-71
2023/08/22 04:58:42;;;;;;;9.95;4.00;;;16.60;99.90;;;;;;5028384;28;20460;-71
2023/08/22 05:01:08;;;;;;;10.07;4.70;;;16.60;99.90;;;;;;5034990;28;20297;-71
2023/08/22 05:03:34;;;;;;;11.20;4.40;;;16.60;99.90;;;;;;5030928;28;20443;-71
2023/08/22 05:05:59;;;;;;;7.55;4.80;;;16.60;99.90;;;;;;5034661;28;20041;-71
2023/08/22 05:08:25;;;;;;;7.00;4.70;;;16.70;99.90;;;;;;5021475;28;20132;-71
2023/08/22 05:10:51;;;;;;;6.75;4.47;;;16.70;99.90;;;;;;5035176;28;20057;-71
2023/08/22 05:13:16;;;;;;;8.70;4.50;;;16.70;99.90;;;;;;5031799;28;20037;-71
2023/08/22 05:15:43;;;;;;;8.98;4.95;;;16.70;99.90;;;;;;5031837;28;20056;-72
2023/08/22 05:18:09;;;;;;;6.25;4.60;;;16.70;99.90;;;;;;5018720;28;20044;-71
2023/08/22 05:20:35;;;;;;;6.30;4.50;;;16.70;99.90;;;;;;5039403;28;20037;-72
2023/08/22 05:23:01;;;;;;;7.15;4.03;;;16.70;99.90;;;;;;5040074;28;20611;-71
2023/08/22 05:25:27;;;;;;;10.02;4.57;;;16.70;99.90;;;;;;5030610;28;20038;-73
2023/08/22 05:27:52;;;;;;;7.65;4.60;;;16.70;99.90;;;;;;5017859;28;20044;-72
2023/08/22 05:30:18;;;;;;;7.82;4.30;;;16.80;99.90;;;;;;5038626;28;20037;-73
2023/08/22 05:32:43;;;;;;;7.72;4.40;;;16.80;99.90;;;;;;5037921;28;20044;-73
2023/08/22 05:35:09;;;;;;;8.88;5.15;;;16.80;99.90;;;;;;5040923;28;20063;-73
2023/08/22 05:37:35;;;;;;;7.78;4.60;;;16.90;99.90;;;;;;5041119;28;20072;-74
2023/08/22 05:40:01;;;;;;;6.47;3.90;;;17.00;99.90;;;;;;5044171;28;20570;-73
2023/08/22 05:42:26;;;;;;;10.45;4.93;;;17.00;99.90;;;;;;5035609;28;20483;-73
2023/08/22 05:44:52;;;;;;;9.85;5.00;;;17.10;99.90;;;;;;5037154;28;20521;-74
2023/08/22 05:47:23;;;;;;;7.18;4.70;;;17.10;99.90;;;;;;5033468;28;20128;-71
2023/08/22 05:49:48;;;;;;;7.32;4.28;;;17.10;99.90;;;;;;5038838;28;20044;-73
2023/08/22 05:52:14;;;;;;;8.05;4.53;;;17.10;99.90;;;;;;5036098;28;20052;-73
2023/08/22 05:54:41;;;;;;;10.98;5.63;;;17.20;99.90;;;;;;5037152;28;20451;-71
2023/08/22 05:57:07;;;;;;;8.10;4.60;;;17.20;99.90;;;;;;5035367;28;20049;-72
2023/08/22 05:59:35;;;;;;;9.90;4.28;;;17.30;99.90;;;;;;5042689;28;20550;-72
2023/08/22 06:02:01;;;;;;;7.82;4.45;;;17.30;99.90;;;;;;5036288;28;20067;-70
2023/08/22 06:04:27;;;;;;;10.27;5.07;;;17.30;99.90;;;;;;5038795;28;20411;-73
2023/08/22 06:06:53;;;;;;;11.35;4.78;;;17.40;99.90;;;;;;5042835;28;20103;-72
2023/08/22 06:09:18;;;;;;;6.30;4.20;;;17.50;99.90;;;;;;5043728;28;20120;-73
2023/08/22 06:11:44;;;;;;;9.35;5.10;;;17.50;99.90;;;;;;5042060;28;20044;-72
2023/08/22 06:14:10;;;;;;;10.93;4.50;;;17.60;99.90;;;;;;5054094;28;20099;-74
2023/08/22 06:16:35;;;;;;;8.82;5.00;;;17.60;99.90;;;;;;5026495;28;20114;-75
2023/08/22 06:19:01;;;;;;;8.88;4.85;;;17.60;99.90;;;;;;5038747;28;20284;-74
2023/08/22 06:21:27;;;;;;;8.05;4.88;;;17.70;99.90;;;;;;5041572;28;20052;-74
2023/08/22 06:23:57;;;;;;;8.63;4.70;;;17.70;99.90;;;;;;5027332;28;20486;-73
2023/08/22 06:26:23;;;;;;;6.97;4.60;;;17.70;99.90;;;;;;5026482;28;20522;-73
2023/08/22 06:28:51;;;;;;;10.35;5.10;;;17.70;99.90;;;;;;5041028;28;20029;-76
2023/08/22 06:31:17;;;;;;;7.07;4.18;;;17.80;99.90;;;;;;5037388;28;20056;-72
2023/08/22 06:33:45;;;;;;;9.85;4.47;;;17.80;99.90;;;;;;5040008;28;20534;-71
2023/08/22 06:36:11;;;;;;;7.20;4.32;;;17.90;99.90;;;;;;5042579;28;20067;-71
2023/08/22 06:38:36;;;;;;;8.07;4.57;;;17.90;99.90;;;;;;5022476;28;20095;-70
2023/08/22 06:41:06;;;;;;;9.48;4.90;;;18.00;99.90;;;;;;5038208;28;20512;-71
2023/08/22 06:43:31;;;;;;;6.40;4.03;;;18.00;99.90;;;;;;5023313;28;20057;-70
2023/08/22 06:45:57;;;;;;;10.82;4.65;;;18.10;99.90;;;;;;5039280;28;20087;-71
2023/08/22 06:48:23;;;;;;;7.25;4.35;;;18.10;99.90;;;;;;5051204;28;20384;-70
2023/08/22 06:50:49;;;;;;;9.93;4.47;;;18.20;99.90;;;;;;5036849;28;20045;-70
2023/08/22 06:53:14;;;;;;;;;;;18.20;99.90;;;;;;5041503;28;20136;-73
2023/08/22 06:55:41;;;;;;;6.60;4.38;;;18.20;99.90;;;;;;5042156;28;19922;-75
2023/08/22 06:58:08;;;;;;;10.27;4.47;;;18.30;99.90;;;;;;5036726;28;20434;-72
2023/08/22 07:00:33;;;;;;;9.50;4.70;;;18.30;99.90;;;;;;5042167;28;20544;-72
2023/08/22 07:02:59;;;;;;;8.90;5.00;;;18.40;99.90;;;;;;5022826;28;20041;-72
2023/08/22 07:05:25;;;;;;;19.40;6.55;;;18.50;99.90;;;;;;5038456;28;20049;-72
2023/08/22 07:07:50;;;;;;;9.68;4.88;;;18.50;99.90;;;;;;5032622;28;20100;-71
2023/08/22 07:10:16;;;;;;;9.60;4.70;;;18.60;99.90;;;;;;5032938;28;20136;-71
2023/08/22 07:12:41;;;;;;;11.93;5.05;;;18.60;99.90;;;;;;5031669;28;20167;-71
2023/08/22 07:15:08;;;;;;;10.85;4.88;;;18.70;99.90;;;;;;5033534;28;20037;-71
2023/08/22 07:17:34;;;;;;;12.90;4.47;;;18.70;99.90;;;;;;5043889;28;20127;-71
2023/08/22 07:19:59;;;;;;;8.45;4.57;;;18.80;99.90;;;;;;5043769;28;20040;-71
2023/08/22 07:22:25;;;;;;;7.47;4.18;;;18.90;99.90;;;;;;5026325;28;20486;-71
2023/08/22 07:24:51;;;;;;;10.15;5.03;;;18.90;99.90;;;;;;5030846;28;20037;-71
2023/08/22 07:27:17;;;;;;;9.07;4.55;;;19.00;99.90;;;;;;5035136;28;20073;-71
2023/08/22 07:29:43;;;;;;;11.02;4.63;;;19.10;99.90;;;;;;5017956;28;20118;-72
2023/08/22 07:32:08;;;;;;;8.20;4.97;;;19.10;99.90;;;;;;5040879;28;20105;-71
2023/08/22 07:34:34;;;;;;;12.25;4.55;;;19.10;99.90;;;;;;5037388;28;20048;-71
2023/08/22 07:37:00;;;;;;;7.82;4.60;;;19.10;99.90;;;;;;5041345;28;20047;-71
2023/08/22 07:39:27;;;;;;;9.32;4.10;;;19.20;99.90;;;;;;5034884;28;20156;-71
2023/08/22 07:41:53;;;;;;;6.35;3.95;;;19.20;99.90;;;;;;5019794;28;20049;-72
2023/08/22 07:44:19;;;;;;;10.07;4.32;;;19.30;99.90;;;;;;5034968;28;20076;-71
2023/08/22 07:46:45;;;;;;;7.93;4.18;;;19.30;99.90;;;;;;5055142;28;20447;-71
2023/08/22 07:49:11;;;;;;;7.55;4.07;;;19.30;99.90;;;;;;5036340;28;20033;-71
2023/08/22 07:51:36;;;;;;;6.78;4.05;;;19.40;99.90;;;;;;5040021;28;20044;-72
2023/08/22 07:54:06;;;;;;;10.02;4.60;;;19.40;99.90;;;;;;5038462;28;20040;-71
2023/08/22 07:56:34;;;;;;;6.80;4.30;;;19.50;99.90;;;;;;5026482;28;20064;-71
2023/08/22 07:59:00;;;;;;;10.35;5.25;;;19.50;99.90;;;;;;5026234;28;20498;-72
2023/08/22 08:01:26;;;;;;;;;;;19.50;99.90;;;;;;5037041;28;20072;-71
2023/08/22 08:03:51;;;;;;;7.32;4.05;;;19.60;99.90;;;;;;5042535;28;19967;-71
2023/08/22 08:06:17;;;;;;;7.75;4.10;;;19.70;99.90;;;;;;5038240;28;20592;-71
2023/08/22 08:08:43;;;;;;;9.07;4.15;;;19.70;99.90;;;;;;5030424;28;20044;-71
2023/08/22 08:11:08;;;;;;;4.82;3.50;;;19.80;99.90;;;;;;5032256;28;20094;-71
2023/08/22 08:13:34;;;;;;;5.13;3.63;;;19.90;99.90;;;;;;5035666;28;20564;-71
2023/08/22 08:16:00;;;;;;;7.45;3.45;;;20.00;99.90;;;;;;5055933;28;20037;-72
2023/08/22 08:18:25;;;;;;;7.10;3.72;;;20.10;99.90;;;;;;5038614;28;20057;-72
2023/08/22 08:20:51;;;;;;;7.22;3.92;;;20.20;99.90;;;;;;5039918;28;20115;-71
2023/08/22 08:23:17;;;;;;;8.15;3.42;;;20.30;99.90;;;;;;5042262;28;20502;-71
2023/08/22 08:25:43;;;;;;;10.27;3.90;;;20.40;99.90;;;;;;5035763;28;20045;-72
2023/08/22 08:28:09;;;;;;;6.90;3.78;;;20.50;99.90;;;;;;5035926;28;20056;-71
2023/08/22 08:30:34;;;;;;;9.10;3.63;;;20.60;99.90;;;;;;5035384;28;20037;-71
2023/08/22 08:33:04;;;;;;;5.22;3.00;;;20.70;99.90;;;;;;5035306;28;20288;-72
2023/08/22 08:35:30;;;;;;;7.30;3.53;;;20.80;99.90;;;;;;5040813;28;20075;-71
2023/08/22 08:37:57;;;;;;;;;;;20.90;99.90;;;;;;5018253;28;20059;-71
2023/08/22 08:40:22;;;;;;;5.57;3.45;;;20.90;99.90;;;;;;5041538;28;20474;-72
2023/08/22 08:42:49;;;;;;;4.85;3.30;;;21.00;99.90;;;;;;5036699;28;20054;-71
2023/08/22 08:45:18;;;;;;;7.43;3.13;;;21.00;99.90;;;;;;5031937;28;20131;-71
2023/08/22 08:47:44;;;;;;;6.65;3.45;;;21.20;99.90;;;;;;5037876;28;20055;-71
2023/08/22 08:50:10;;;;;;;7.35;3.88;;;21.30;99.90;;;;;;5019046;28;20037;-72
2023/08/22 08:52:36;;;;;;;;;;;21.30;99.90;;;;;;5028800;28;20045;-71
2023/08/22 08:55:04;;;;;;;8.18;3.42;;;21.30;99.90;;;;;;5036282;28;19917;-71
2023/08/22 08:57:31;;;;;;;7.85;3.53;;;21.40;99.90;;;;;;5016559;28;20045;-71
2023/08/22 09:00:00;;;;;;;6.43;2.85;;;21.40;99.90;;;;;;5040990;28;20041;-71
2023/08/22 09:02:25;;;;;;;6.03;3.22;;;21.50;99.90;;;;;;5039330;28;20049;-71
2023/08/22 09:04:51;;;;;;;;;;;21.50;99.90;;;;;;5034399;28;20129;-72
2023/08/22 09:07:18;;;;;;;8.35;3.22;;;21.50;99.90;;;;;;5035863;28;19969;-71
2023/08/22 09:09:43;;;;;;;6.40;3.25;;;21.50;99.90;;;;;;5040329;28;20094;-72
2023/08/22 09:12:10;;;;;;;;;;;21.50;99.90;;;;;;5043245;28;20037;-71
2023/08/22 09:14:46;;;;;;;6.85;2.97;;;21.50;99.90;;;;;;5040412;28;19950;-72
2023/08/22 09:17:15;;;;;;;;;;;21.50;99.90;;;;;;5036476;28;20056;-71
2023/08/22 09:19:42;;;;;;;5.30;2.53;;;21.50;99.90;;;;;;5039007;28;19916;-72
2023/08/22 09:22:11;;;;;;;;;;;21.50;99.90;;;;;;5040213;28;20384;-71
2023/08/22 09:24:36;;;;;;;8.30;2.95;;;21.50;99.90;;;;;;5044272;28;19923;-71
2023/08/22 09:27:03;;;;;;;;;;;21.50;99.90;;;;;;5040663;28;20121;-71
2023/08/22 09:29:30;;;;;;;7.47;3.37;;;21.60;99.90;;;;;;5018440;28;20358;-71
2023/08/22 09:32:06;;;;;;;7.65;3.10;;;21.70;99.90;;;;;;5035085;28;20040;-71
2023/08/22 09:34:35;;;;;;;4.65;2.83;;;21.90;99.90;;;;;;5033979;28;20041;-71
2023/08/22 09:37:02;;;;;;;6.20;2.63;;;22.00;99.90;;;;;;5033186;28;20053;-72
2023/08/22 09:39:30;;;;;;;10.07;2.85;;;22.20;99.90;;;;;;5033819;28;20049;-71
2023/08/22 09:41:57;;;;;;;9.02;3.00;;;22.40;99.90;;;;;;5030299;28;20049;-72
2023/08/22 09:44:25;;;;;;;6.68;3.05;;;22.50;99.90;;;;;;5060512;28;20395;-71
2023/08/22 09:46:56;;;;;;;8.55;2.92;;;22.40;99.90;;;;;;5036424;28;20056;-72
2023/08/22 09:49:22;;;;;;;5.03;2.85;;;22.40;99.90;;;;;;5034521;28;20040;-72
2023/08/22 09:51:55;;;;;;;7.68;3.35;;;22.40;99.90;;;;;;5037570;28;20566;-72
2023/08/22 09:54:22;;;;;;;5.28;2.35;;;22.40;99.90;;;;;;5041397;28;20045;-72
2023/08/22 09:56:49;;;;;;;5.40;2.70;;;22.50;99.90;;;;;;5037955;28;20067;-72
2023/08/22 09:59:18;;;;;;;5.43;2.58;;;22.50;99.90;;;;;;5034282;28;20049;-71
2023/08/22 10:01:45;;;;;;;5.18;2.97;;;22.60;99.90;;;;;;5035794;28;20103;-72
2023/08/22 10:04:12;;;;;;;6.10;2.38;;;22.60;99.90;;;;;;5045027;28;20167;-72
2023/08/22 10:06:39;;;;;;;5.97;2.60;;;22.70;99.90;;;;;;5036696;28;20455;-72
2023/08/22 10:09:10;;;;;;;5.88;2.75;;;22.70;99.90;;;;;;5042522;28;20271;-72
2023/08/22 10:11:50;;;;;;;7.40;3.05;;;22.80;99.90;;;;;;5034894;28;20049;-71
2023/08/22 10:14:27;;;;;;;5.95;2.42;;;22.80;99.90;;;;;;5035402;28;20152;-72
2023/08/22 10:16:55;;;;;;;7.03;3.00;;;22.90;99.90;;;;;;5044372;28;20138;-72
2023/08/22 10:19:21;;;;;;;3.78;2.25;;;22.90;99.90;;;;;;5034809;28;20098;-72
2023/08/22 10:21:47;;;;;;;5.40;2.80;;;22.90;99.90;;;;;;5017259;28;20053;-72
2023/08/22 10:24:21;;;;;;;;;;;22.90;99.90;;;;;;5058344;28;20048;-71
2023/08/22 10:27:07;;;;;;;6.75;3.17;;;22.80;99.90;;;;;;5041610;28;20442;-72
2023/08/22 10:29:35;;;;;;;6.63;2.90;;;22.70;99.90;;;;;;5035873;28;20146;-71
2023/08/22 10:32:01;;;;;;;4.78;2.67;;;22.70;99.90;;;;;;5036768;28;20045;-71
2023/08/22 10:34:27;;;;;;;;;;;22.90;99.90;;;;;;5031494;28;20399;-71
2023/08/22 10:37:00;;;;;;;5.05;1.77;;;23.00;99.90;;;;;;5031119;28;19924;-72
2023/08/22 10:39:35;;;;;;;3.95;1.80;;;23.30;99.90;;;;;;5038276;28;20399;-72
2023/08/22 10:42:00;;;;;;;8.50;2.33;;;23.40;99.90;;;;;;5044999;28;20064;-72
2023/08/22 10:44:30;;;;;;;;;;;23.40;99.90;;;;;;5044385;28;20055;-72
2023/08/22 10:47:03;;;;;;;6.03;1.80;;;23.50;99.90;;;;;;5036807;28;20016;-71
2023/08/22 10:49:38;;;;;;;3.85;1.70;;;23.60;99.90;;;;;;5041656;28;20355;-71
2023/08/22 10:52:11;;;;;;;3.85;1.70;;;23.60;99.90;;;;;;5038533;28;20039;-72
2023/08/22 10:55:00;;;;;;;5.10;1.50;;;23.70;99.90;;;;;;5054559;28;20041;-72
2023/08/22 10:57:32;;;;;;;3.78;1.63;;;23.80;99.90;;;;;;5031953;28;20072;-72
2023/08/22 11:00:12;;;;;;;7.80;2.45;;;23.90;99.90;;;;;;5042101;28;20120;-72
2023/08/22 11:02:39;;;;;;;5.00;2.28;;;24.00;99.90;;;;;;5042164;28;20091;-71
2023/08/22 11:05:11;;;;;;;6.03;2.55;;;24.10;99.90;;;;;;5041506;28;20045;-71
2023/08/22 11:07:40;;;;;;;4.78;2.22;;;24.20;99.90;;;;;;5036878;28;20102;-71
2023/08/22 11:10:07;;;;;;;6.43;2.55;;;24.30;99.90;;;;;;5041253;28;20037;-72
2023/08/22 11:12:33;;;;;;;5.05;2.65;;;24.30;99.90;;;;;;5021615;28;20448;-72
2023/08/22 11:14:59;;;;;;;4.63;2.80;;;24.40;99.90;;;;;;5031917;28;20048;-72
2023/08/22 11:17:25;;;;;;;5.47;2.92;;;24.40;99.90;;;;;;5037579;28;20055;-72
2023/08/22 11:19:53;;;;;;;8.10;2.95;;;24.40;99.90;;;;;;5034566;28;20044;-72
2023/08/22 11:22:19;;;;;;;5.97;2.92;;;24.40;99.90;;;;;;5034667;28;20052;-72
2023/08/22 11:24:46;;;;;;;5.95;2.55;;;24.50;99.90;;;;;;5040426;28;20099;-72
2023/08/22 11:27:13;;;;;;;6.93;2.80;;;24.50;99.90;;;;;;5030700;28;20049;-73
2023/08/22 11:29:50;;;;;;;5.32;3.00;;;24.50;99.90;;;;;;5035767;28;20045;-71
2023/08/22 11:32:23;;;;;;;9.73;2.38;;;24.50;99.90;;;;;;5038206;28;20123;-72
2023/08/22 11:34:50;;;;;;;7.03;3.25;;;24.50;99.90;;;;;;5037605;28;20033;-72
2023/08/22 11:37:17;;;;;;;7.43;3.50;;;24.60;99.90;;;;;;5031937;28;20103;-72
2023/08/22 11:39:49;;;;;;;5.93;3.45;;;24.50;99.90;;;;;;5033007;28;20064;-72
2023/08/22 11:42:20;;;;;;;7.07;3.45;;;24.60;99.90;;;;;;5028451;28;20052;-72
2023/08/22 11:45:10;;;;;;;12.20;4.07;;;24.60;99.90;;;;;;5040697;28;20068;-72
2023/08/22 11:47:47;;;;;;;6.25;2.85;;;24.60;99.90;;;;;;5027511;28;20042;-72
2023/08/22 11:50:17;;;;;;;5.95;3.35;;;24.70;99.90;;;;;;5044408;28;20187;-72
2023/08/22 11:52:45;;;;;;;8.38;4.30;;;24.80;99.90;;;;;;5037758;28;20128;-72
2023/08/22 11:55:14;;;;;;;6.90;3.63;;;24.80;99.90;;;;;;5030518;28;20499;-72
2023/08/22 11:57:41;;;;;;;10.40;4.07;;;24.80;99.90;;;;;;5038500;28;20041;-72
2023/08/22 12:00:09;;;;;;;7.53;2.92;;;24.90;99.90;;;;;;5034953;28;20155;-72
2023/08/22 12:02:36;;;;;;;5.47;3.63;;;25.00;99.90;;;;;;5037129;28;20056;-72
2023/08/22 12:05:03;;;;;;;5.13;2.60;;;25.10;99.90;;;;;;5034164;28;20052;-72
2023/08/22 12:07:29;;;;;;;8.73;3.13;;;25.20;99.90;;;;;;5042732;28;20303;-72
2023/08/22 12:10:12;;;;;;;7.05;3.22;;;25.20;99.90;;;;;;5036651;28;20041;-72
2023/08/22 12:12:38;;;;;;;7.40;3.67;;;25.20;99.90;;;;;;5031443;28;20160;-72
2023/08/22 12:15:04;;;;;;;9.52;3.33;;;24.90;99.90;;;;;;5033439;28;20471;-72
2023/08/22 12:17:31;;;;;;;6.22;3.50;;;24.70;99.90;;;;;;5042965;28;20148;-72
2023/08/22 12:19:56;;;;;;;5.78;2.97;;;24.40;99.90;;;;;;5037011;28;20451;-72
2023/08/22 12:22:22;;;;;;;12.25;2.92;;;24.10;99.90;;;;;;5037041;28;20225;-72
2023/08/22 12:24:49;;;;;;;5.50;2.42;;;24.20;99.90;;;;;;5017618;28;20112;-72
2023/08/22 12:27:14;;;;;;;7.70;3.15;;;24.30;99.90;;;;;;5041167;28;20136;-72
2023/08/22 12:29:41;;;;;;;12.15;2.92;;;24.30;99.90;;;;;;5040973;28;20535;-71
2023/08/22 12:32:07;;;;;;;7.55;2.97;;;24.30;99.90;;;;;;5059822;28;20043;-72
2023/08/22 12:34:33;;;;;;;8.48;3.13;;;24.40;99.90;;;;;;5041614;28;20179;-72
2023/08/22 12:36:58;;;;;;;7.78;3.00;;;24.40;99.90;;;;;;5040676;28;20500;-72
2023/08/22 12:39:25;;;;;;;5.93;3.00;;;24.50;99.90;;;;;;5033839;28;20047;-72
2023/08/22 12:41:50;;;;;;;6.90;2.60;;;24.60;99.90;;;;;;5034428;28;20071;-72
2023/08/22 12:44:16;;;;;;;7.45;3.03;;;24.70;99.90;;;;;;5044030;28;20351;-72
2023/08/22 12:46:42;;;;;;;6.00;2.75;;;24.80;99.90;;;;;;5035195;28;20570;-73
2023/08/22 12:49:08;;;;;;;8.07;2.42;;;24.90;99.90;;;;;;5041332;28;20463;-72
2023/08/22 12:51:33;;;;;;;8.52;2.42;;;25.00;99.90;;;;;;5046688;28;20132;-72